Terminal Aerodrome Forecast
Issued by NWS

Home | Current Version | Previous Version | Text Only | Print | Product List | Glossary On
Versions: 1 2 3 4 5 6 7 8 9 10 11 12 13 14 15 16 17 18 19
143
FTUS44 KTSA 181125
TAFMLC
TAF
KMLC 181125Z 1812/1912 00000KT P6SM BKN070
     FM181400 12003KT 5SM BR OVC015
     FM190000 VRB03KT 4SM BR OVC007=

USA.gov is the U.S. government's official web portal to all federal, state and local government web resources and services.